createdAt,value
2019-03-18T00:00:36.716Z,3.43
2019-03-18T00:03:07.740Z,2.03
2019-03-18T00:05:36.169Z,5.13
2019-03-18T00:08:04.864Z,1.57
2019-03-18T00:10:33.813Z,3.13
2019-03-18T00:13:02.391Z,3.33
2019-03-18T00:15:31.275Z,1.97
2019-03-18T00:17:59.712Z,4.40
2019-03-18T00:20:28.399Z,3.30
2019-03-18T00:22:56.972Z,2.13
2019-03-18T00:25:25.665Z,3.50
2019-03-18T00:27:54.012Z,4.40
2019-03-18T00:30:22.686Z,3.13
2019-03-18T00:32:51.194Z,1.60
2019-03-18T00:35:19.598Z,1.93
2019-03-18T00:37:48.034Z,2.43
2019-03-18T00:40:16.805Z,3.03
2019-03-18T00:42:45.310Z,1.27
2019-03-18T00:45:15.075Z,2.30
2019-03-18T00:47:44.106Z,5.17
2019-03-18T00:50:12.680Z,5.80
2019-03-18T00:52:41.519Z,3.47
2019-03-18T00:55:10.115Z,5.30
2019-03-18T00:57:38.472Z,6.47
2019-03-18T01:00:07.043Z,1.67
2019-03-18T01:02:35.799Z,3.60
2019-03-18T01:05:04.612Z,5.03
2019-03-18T01:07:33.428Z,1.70
2019-03-18T01:10:01.795Z,1.70
2019-03-18T01:12:30.272Z,0.90
2019-03-18T01:14:58.757Z,3.27
2019-03-18T01:17:27.443Z,3.23
2019-03-18T01:19:55.795Z,2.43
2019-03-18T01:22:24.188Z,1.17
2019-03-18T01:24:52.570Z,0.93
2019-03-18T01:27:21.181Z,3.80
2019-03-18T01:29:49.871Z,4.07
2019-03-18T01:32:18.246Z,4.00
2019-03-18T01:34:46.639Z,1.23
2019-03-18T01:37:14.974Z,0.90
2019-03-18T01:39:43.424Z,1.80
2019-03-18T01:42:11.804Z,1.43
2019-03-18T01:44:40.169Z,0.70
2019-03-18T01:47:08.537Z,2.20
2019-03-18T01:49:37.842Z,2.60
2019-03-18T01:52:07.062Z,1.83
2019-03-18T01:54:35.464Z,0.77
2019-03-18T01:57:04.136Z,3.73
2019-03-18T01:59:32.781Z,2.00
2019-03-18T02:02:01.111Z,1.70
2019-03-18T02:04:29.603Z,1.37
2019-03-18T02:06:58.023Z,0.77
2019-03-18T02:09:26.476Z,0.90
2019-03-18T02:11:54.855Z,1.40
2019-03-18T02:14:23.223Z,3.30
2019-03-18T02:16:51.868Z,0.80
2019-03-18T02:19:20.217Z,1.73
2019-03-18T02:21:48.578Z,1.00
2019-03-18T02:24:16.968Z,1.30
2019-03-18T02:26:45.333Z,1.27
2019-03-18T02:29:13.688Z,0.80
2019-03-18T02:31:42.053Z,1.67
2019-03-18T02:34:10.458Z,2.77
2019-03-18T02:36:38.950Z,1.60
2019-03-18T02:39:07.381Z,0.63
2019-03-18T02:41:35.728Z,1.37
2019-03-18T02:44:04.173Z,1.13
2019-03-18T02:46:32.584Z,0.83
2019-03-18T02:49:00.930Z,1.77
2019-03-18T02:51:29.279Z,1.27
2019-03-18T02:53:57.631Z,5.60
2019-03-18T02:56:26.345Z,5.93
2019-03-18T02:58:54.699Z,0.90
2019-03-18T03:01:23.425Z,1.90
2019-03-18T03:03:51.835Z,4.97
2019-03-18T03:06:20.208Z,2.87
2019-03-18T03:08:48.645Z,1.40
2019-03-18T03:11:17.080Z,4.10
2019-03-18T03:13:45.478Z,1.03
2019-03-18T03:16:25.596Z,2.97
2019-03-18T03:18:44.042Z,1.30
2019-03-18T03:21:12.446Z,1.47
2019-03-18T03:23:41.124Z,3.33
2019-03-18T03:26:09.463Z,1.80
2019-03-18T03:28:38.245Z,2.70
2019-03-18T03:31:06.639Z,1.10
2019-03-18T03:33:35.050Z,0.83
2019-03-18T03:36:03.528Z,1.77
2019-03-18T03:38:32.259Z,1.73
2019-03-18T03:41:00.637Z,3.53
2019-03-18T03:43:29.066Z,0.70
2019-03-18T03:45:57.428Z,2.10
2019-03-18T03:48:25.851Z,0.57
2019-03-18T03:50:54.273Z,4.23
2019-03-18T03:53:22.620Z,0.90
2019-03-18T03:55:51.104Z,1.93
2019-03-18T03:58:19.748Z,2.70
2019-03-18T04:00:48.194Z,1.70
2019-03-18T04:03:16.627Z,0.73
2019-03-18T04:05:45.068Z,0.50
2019-03-18T04:08:13.797Z,2.13
2019-03-18T04:10:42.251Z,0.60
2019-03-18T04:13:10.680Z,3.13
2019-03-18T04:15:39.211Z,0.70
2019-03-18T04:18:07.893Z,1.70
2019-03-18T04:20:36.240Z,0.73
2019-03-18T04:23:04.678Z,1.17
2019-03-18T04:25:33.065Z,0.50
2019-03-18T04:28:01.469Z,0.40
2019-03-18T04:30:29.892Z,0.50
2019-03-18T04:32:58.287Z,0.40
2019-03-18T04:35:26.706Z,5.60
2019-03-18T04:37:55.091Z,2.57
2019-03-18T04:40:24.356Z,1.97
2019-03-18T04:42:52.966Z,3.07
2019-03-18T04:45:21.354Z,0.60
2019-03-18T04:47:49.793Z,1.17
2019-03-18T04:50:18.501Z,3.50
2019-03-18T04:52:47.102Z,0.50
2019-03-18T04:55:15.499Z,1.00
2019-03-18T04:57:43.933Z,3.40
2019-03-18T05:00:12.361Z,1.47
2019-03-18T05:02:40.886Z,0.50
2019-03-18T05:05:09.299Z,1.03
2019-03-18T05:07:37.767Z,1.27
2019-03-18T05:10:06.581Z,12.03
2019-03-18T05:12:35.039Z,10.17
2019-03-18T05:15:03.535Z,12.90
2019-03-18T05:17:31.900Z,6.60
2019-03-18T05:20:00.394Z,7.30
2019-03-18T05:22:28.771Z,9.37
2019-03-18T05:24:57.185Z,9.93
2019-03-18T05:27:25.573Z,8.30
2019-03-18T05:29:53.914Z,5.90
2019-03-18T05:32:22.291Z,9.70
2019-03-18T05:34:51.369Z,8.53
2019-03-18T05:37:20.489Z,8.73
2019-03-18T05:39:48.905Z,8.50
2019-03-18T05:42:17.339Z,13.90
2019-03-18T05:44:46.083Z,2.60
2019-03-18T05:47:14.838Z,7.73
2019-03-18T05:49:43.195Z,5.60
2019-03-18T05:52:11.566Z,3.13
2019-03-18T05:54:39.913Z,4.90
2019-03-18T05:57:08.680Z,3.17
2019-03-18T05:59:37.043Z,4.87
2019-03-18T06:02:05.409Z,5.40
2019-03-18T06:04:33.762Z,3.13
2019-03-18T06:07:02.146Z,3.73
2019-03-18T06:09:30.528Z,4.53
2019-03-18T06:11:59.269Z,1.83
2019-03-18T06:14:27.684Z,4.47
2019-03-18T06:16:56.116Z,8.63
2019-03-18T06:19:24.534Z,4.43
2019-03-18T06:21:53.213Z,2.63
2019-03-18T06:24:21.657Z,3.13
2019-03-18T06:26:50.053Z,4.63
2019-03-18T06:29:18.821Z,3.43
2019-03-18T06:31:47.181Z,3.50
2019-03-18T06:34:15.816Z,4.33
2019-03-18T06:36:44.276Z,1.13
2019-03-18T06:39:12.872Z,5.23
2019-03-18T06:41:41.571Z,6.73
2019-03-18T06:44:10.004Z,2.37
2019-03-18T06:46:38.454Z,1.00
2019-03-18T06:49:06.841Z,2.30
2019-03-18T06:51:35.245Z,1.90
2019-03-18T06:54:03.729Z,1.90
2019-03-18T06:56:32.186Z,4.10
2019-03-18T06:59:00.535Z,4.23
2019-03-18T07:01:28.901Z,3.73
2019-03-18T07:03:57.308Z,3.40
2019-03-18T07:06:25.696Z,3.97
2019-03-18T07:08:54.117Z,1.30
2019-03-18T07:11:22.499Z,2.03
2019-03-18T07:13:51.317Z,0.60
2019-03-18T07:16:19.661Z,0.50
2019-03-18T07:18:48.029Z,1.27
2019-03-18T07:21:16.482Z,1.63
2019-03-18T07:23:44.837Z,1.10
2019-03-18T07:26:13.213Z,3.30
2019-03-18T07:28:41.585Z,1.67
2019-03-18T07:31:09.952Z,1.37
2019-03-18T07:33:38.359Z,0.80
2019-03-18T07:36:07.049Z,0.80
2019-03-18T07:38:35.498Z,3.63
2019-03-18T07:41:03.936Z,1.40
2019-03-18T07:43:32.319Z,1.10
2019-03-18T07:46:00.829Z,1.37
2019-03-18T07:48:31.224Z,3.53
2019-03-18T07:50:59.633Z,7.77
2019-03-18T07:53:28.085Z,6.10
2019-03-18T07:55:56.567Z,5.40
2019-03-18T07:58:25.004Z,4.30
2019-03-18T08:00:53.459Z,4.97
2019-03-18T08:03:22.925Z,4.53
2019-03-18T08:05:51.308Z,8.17
2019-03-18T08:08:19.679Z,9.50
2019-03-18T08:10:48.132Z,9.93
2019-03-18T08:13:16.475Z,8.17
2019-03-18T08:15:44.859Z,7.83
2019-03-18T08:18:13.584Z,8.70
2019-03-18T08:20:41.917Z,8.43
2019-03-18T08:23:10.325Z,6.00
2019-03-18T08:25:38.809Z,7.33
2019-03-18T08:28:07.163Z,8.50
2019-03-18T08:30:35.851Z,9.40
2019-03-18T08:33:04.294Z,7.77
2019-03-18T08:35:32.739Z,7.00
2019-03-18T08:38:01.108Z,3.47
2019-03-18T08:40:29.562Z,4.57
2019-03-18T08:42:58.601Z,7.00
2019-03-18T08:45:26.960Z,6.13
2019-03-18T08:47:55.821Z,6.00
2019-03-18T08:50:24.442Z,6.23
2019-03-18T08:52:52.919Z,7.47
2019-03-18T08:55:21.268Z,7.93
2019-03-18T08:57:49.946Z,12.07
2019-03-18T09:00:18.648Z,8.73
2019-03-18T09:02:47.002Z,7.80
2019-03-18T09:05:15.455Z,11.77
2019-03-18T09:07:43.888Z,6.60
2019-03-18T09:10:12.575Z,8.80
2019-03-18T09:12:41.013Z,6.27
2019-03-18T09:15:09.563Z,6.53
2019-03-18T09:17:37.940Z,7.37
2019-03-18T09:20:07.219Z,7.27
2019-03-18T09:22:35.658Z,4.87
2019-03-18T09:25:04.650Z,5.37
2019-03-18T09:27:33.073Z,8.57
2019-03-18T09:30:01.807Z,9.03
2019-03-18T09:32:30.254Z,6.63
2019-03-18T09:34:58.642Z,6.40
2019-03-18T09:37:26.985Z,5.63
2019-03-18T09:39:55.418Z,9.50
2019-03-18T09:42:24.203Z,6.13
2019-03-18T09:44:52.754Z,6.07
2019-03-18T09:47:21.180Z,9.73
2019-03-18T09:49:49.562Z,8.70
2019-03-18T09:52:17.953Z,6.47
2019-03-18T09:54:46.390Z,4.03
2019-03-18T09:57:25.309Z,6.63
2019-03-18T09:59:50.795Z,7.90
2019-03-18T10:02:19.220Z,5.10
2019-03-18T10:04:47.652Z,6.73
2019-03-18T10:07:16.708Z,6.87
2019-03-18T10:09:45.138Z,4.10
2019-03-18T10:12:13.479Z,5.73
2019-03-18T10:14:42.260Z,7.17
2019-03-18T10:17:10.744Z,5.07
2019-03-18T10:19:39.112Z,7.57
2019-03-18T10:22:07.534Z,5.10
2019-03-18T10:24:35.977Z,4.53
2019-03-18T10:27:04.441Z,5.27
2019-03-18T10:29:33.122Z,4.40
2019-03-18T10:32:01.536Z,4.00
2019-03-18T10:34:29.981Z,4.37
2019-03-18T10:36:58.346Z,6.00
2019-03-18T10:39:26.745Z,3.07
2019-03-18T10:41:55.166Z,3.60
2019-03-18T10:44:23.571Z,2.97
2019-03-18T10:46:52.263Z,6.17
2019-03-18T10:49:20.618Z,3.17
2019-03-18T10:51:48.970Z,6.67
2019-03-18T10:54:17.343Z,3.13
2019-03-18T10:56:45.783Z,7.50
2019-03-18T10:59:14.400Z,3.90
2019-03-18T11:01:43.131Z,2.70
2019-03-18T11:04:11.470Z,3.87
2019-03-18T11:06:39.912Z,4.27
2019-03-18T11:09:08.267Z,3.17
2019-03-18T11:11:36.959Z,2.03
2019-03-18T11:14:05.406Z,4.40
2019-03-18T11:16:33.942Z,3.37
2019-03-18T11:19:02.337Z,2.20
2019-03-18T11:21:30.724Z,2.20
2019-03-18T11:23:59.124Z,4.87
2019-03-18T11:26:27.568Z,4.00
2019-03-18T11:28:56.908Z,2.67
2019-03-18T11:31:25.448Z,4.03
2019-03-18T11:33:53.820Z,2.40
2019-03-18T11:36:22.494Z,2.57
2019-03-18T11:38:50.918Z,3.10
2019-03-18T11:41:19.291Z,3.50
2019-03-18T11:43:47.672Z,2.10
2019-03-18T11:46:16.109Z,2.27
2019-03-18T11:48:44.496Z,3.23
2019-03-18T11:51:12.875Z,1.60
2019-03-18T11:53:41.321Z,1.80
2019-03-18T11:56:09.668Z,2.00
2019-03-18T11:58:38.142Z,3.10
2019-03-18T12:01:06.562Z,3.03
2019-03-18T12:03:34.949Z,3.80
2019-03-18T12:06:03.348Z,1.97
2019-03-18T12:08:31.742Z,1.63
2019-03-18T12:11:00.243Z,2.13
2019-03-18T12:13:28.612Z,1.17
2019-03-18T12:15:57.023Z,2.20
2019-03-18T12:18:25.500Z,1.73
2019-03-18T12:20:53.953Z,1.47
2019-03-18T12:23:22.391Z,3.07
2019-03-18T12:25:50.752Z,1.00
2019-03-18T12:28:19.109Z,1.20
2019-03-18T12:30:47.600Z,1.57
2019-03-18T12:33:16.043Z,3.30
2019-03-18T12:35:44.404Z,2.40
2019-03-18T12:38:12.832Z,2.17
2019-03-18T12:40:41.432Z,3.03
2019-03-18T12:43:09.913Z,1.13
2019-03-18T12:45:38.356Z,1.73
2019-03-18T12:48:06.768Z,2.30
2019-03-18T12:50:54.002Z,1.83
2019-03-18T12:53:05.632Z,1.77
2019-03-18T12:55:33.976Z,2.87
2019-03-18T12:58:02.345Z,1.60
2019-03-18T13:00:30.978Z,2.47
2019-03-18T13:02:59.531Z,1.77
2019-03-18T13:05:27.953Z,3.80
2019-03-18T13:07:56.344Z,1.67
2019-03-18T13:10:24.717Z,1.67
2019-03-18T13:12:53.441Z,1.43
2019-03-18T13:15:21.803Z,2.00
2019-03-18T13:17:50.422Z,2.10
2019-03-18T13:20:18.851Z,1.83
2019-03-18T13:22:47.306Z,1.17
2019-03-18T13:25:15.737Z,2.90
2019-03-18T13:27:44.191Z,1.50
2019-03-18T13:30:15.373Z,1.83
2019-03-18T13:32:43.672Z,1.40
2019-03-18T13:35:12.388Z,1.10
2019-03-18T13:37:40.759Z,3.27
2019-03-18T13:40:09.391Z,1.90
2019-03-18T13:42:38.586Z,0.93
2019-03-18T13:45:08.096Z,6.97
2019-03-18T13:47:36.456Z,3.40
2019-03-18T13:50:05.396Z,2.40
2019-03-18T13:52:33.860Z,3.03
2019-03-18T13:55:02.275Z,6.67
2019-03-18T13:57:30.920Z,3.80
2019-03-18T13:59:59.309Z,1.63
2019-03-18T14:02:28.021Z,2.47
2019-03-18T14:04:57.185Z,2.87
2019-03-18T14:07:25.545Z,1.83
2019-03-18T14:09:53.971Z,2.53
2019-03-18T14:12:22.380Z,3.40
2019-03-18T14:14:50.748Z,1.33
2019-03-18T14:17:19.529Z,0.90
2019-03-18T14:19:47.885Z,1.07
2019-03-18T14:22:16.232Z,1.63
2019-03-18T14:24:44.587Z,2.63
2019-03-18T14:27:13.070Z,2.87
2019-03-18T14:29:41.432Z,1.80
2019-03-18T14:32:09.965Z,2.00
2019-03-18T14:34:38.411Z,1.27
2019-03-18T14:37:06.832Z,0.93
2019-03-18T14:39:35.588Z,2.50
2019-03-18T14:42:04.052Z,1.27
2019-03-18T14:44:32.749Z,1.73
2019-03-18T14:47:01.420Z,2.10
2019-03-18T14:49:29.786Z,1.40
2019-03-18T14:51:58.168Z,1.10
2019-03-18T14:54:26.549Z,1.87
2019-03-18T14:56:54.980Z,0.77
2019-03-18T14:59:23.332Z,6.77
2019-03-18T15:01:51.793Z,1.20
2019-03-18T15:04:20.217Z,0.80
2019-03-18T15:06:48.579Z,1.07
2019-03-18T15:09:17.301Z,2.10
2019-03-18T15:11:45.657Z,0.87
2019-03-18T15:14:14.153Z,0.80
2019-03-18T15:16:42.580Z,0.63
2019-03-18T15:19:11.012Z,1.73
2019-03-18T15:21:39.394Z,0.97
2019-03-18T15:24:16.788Z,2.03
2019-03-18T15:26:46.551Z,1.70
2019-03-18T15:29:14.934Z,0.90
2019-03-18T15:31:43.397Z,1.37
2019-03-18T15:34:12.015Z,1.20
2019-03-18T15:36:40.373Z,1.40
2019-03-18T15:39:08.829Z,0.80
2019-03-18T15:41:37.265Z,3.60
2019-03-18T15:44:05.636Z,1.70
2019-03-18T15:46:33.998Z,1.13
2019-03-18T15:49:03.088Z,0.60
2019-03-18T15:51:31.448Z,0.50
2019-03-18T15:53:59.844Z,0.70
2019-03-18T15:56:28.464Z,1.07
2019-03-18T15:58:57.106Z,0.50
2019-03-18T16:01:25.463Z,1.63
2019-03-18T16:03:54.219Z,1.77
2019-03-18T16:06:22.671Z,0.67
2019-03-18T16:08:51.088Z,0.97
2019-03-18T16:11:19.772Z,0.57
2019-03-18T16:13:48.339Z,0.50
2019-03-18T16:16:16.681Z,0.40
2019-03-18T16:18:45.086Z,2.00
2019-03-18T16:21:13.593Z,0.90
2019-03-18T16:23:42.408Z,2.07
2019-03-18T16:26:10.817Z,1.00
2019-03-18T16:28:39.201Z,0.50
2019-03-18T16:31:07.711Z,1.50
2019-03-18T16:33:36.133Z,0.50
2019-03-18T16:36:04.582Z,3.20
2019-03-18T16:38:32.977Z,0.60
2019-03-18T16:41:01.396Z,0.87
2019-03-18T16:43:29.772Z,0.90
2019-03-18T16:45:58.161Z,0.60
2019-03-18T16:48:26.520Z,0.60
2019-03-18T16:50:54.957Z,0.77
2019-03-18T16:53:23.347Z,0.77
2019-03-18T16:55:51.822Z,0.63
2019-03-18T16:58:20.243Z,0.50
2019-03-18T17:00:48.654Z,0.43
2019-03-18T17:03:17.075Z,0.73
2019-03-18T17:05:45.536Z,0.50
2019-03-18T17:08:13.963Z,0.60
2019-03-18T17:10:42.341Z,0.80
2019-03-18T17:13:10.724Z,0.50
2019-03-18T17:15:39.162Z,0.87
2019-03-18T17:18:07.602Z,1.03
2019-03-18T17:20:36.250Z,0.50
2019-03-18T17:23:04.950Z,0.57
2019-03-18T17:25:33.688Z,2.00
2019-03-18T17:28:02.135Z,0.60
2019-03-18T17:30:30.564Z,0.70
2019-03-18T17:32:58.914Z,0.57
2019-03-18T17:35:28.092Z,0.80
2019-03-18T17:37:56.463Z,0.50
2019-03-18T17:40:24.908Z,2.40
2019-03-18T17:42:53.635Z,1.90
2019-03-18T17:45:22.003Z,0.50
2019-03-18T17:47:50.355Z,1.00
2019-03-18T17:50:19.004Z,0.87
2019-03-18T17:52:47.386Z,0.70
2019-03-18T17:55:15.807Z,1.33
2019-03-18T17:57:44.251Z,0.50
2019-03-18T18:00:15.855Z,0.90
2019-03-18T18:02:44.292Z,1.43
2019-03-18T18:05:12.752Z,0.90
2019-03-18T18:07:41.205Z,1.03
2019-03-18T18:10:09.655Z,2.40
2019-03-18T18:12:38.094Z,1.40
2019-03-18T18:15:06.549Z,1.67
2019-03-18T18:17:35.236Z,1.50
2019-03-18T18:20:03.688Z,1.20
2019-03-18T18:22:32.058Z,2.77
2019-03-18T18:25:00.509Z,1.43
2019-03-18T18:27:28.907Z,1.53
2019-03-18T18:29:57.289Z,1.30
2019-03-18T18:32:25.675Z,2.13
2019-03-18T18:34:54.145Z,1.60
2019-03-18T18:37:22.537Z,1.40
2019-03-18T18:39:50.923Z,1.53
2019-03-18T18:42:19.388Z,0.90
2019-03-18T18:44:47.729Z,2.23
2019-03-18T18:47:16.456Z,1.93
2019-03-18T18:49:44.875Z,3.33
2019-03-18T18:52:13.251Z,1.57
2019-03-18T18:54:41.876Z,2.50
2019-03-18T18:57:10.277Z,1.80
2019-03-18T18:59:38.635Z,1.43
2019-03-18T19:02:07.508Z,1.50
2019-03-18T19:04:35.874Z,2.00
2019-03-18T19:07:04.303Z,2.27
2019-03-18T19:09:32.670Z,3.57
2019-03-18T19:12:01.268Z,1.30
2019-03-18T19:14:29.605Z,1.20
2019-03-18T19:16:57.987Z,1.63
2019-03-18T19:19:26.356Z,3.07
2019-03-18T19:21:54.688Z,1.47
2019-03-18T19:24:31.174Z,1.70
2019-03-18T19:26:59.602Z,2.30
2019-03-18T19:29:28.043Z,1.20
2019-03-18T19:31:56.432Z,4.13
2019-03-18T19:34:24.912Z,4.23
2019-03-18T19:36:53.273Z,6.20
2019-03-18T19:39:21.697Z,1.43
2019-03-18T19:41:50.062Z,2.53
2019-03-18T19:44:18.612Z,1.40
2019-03-18T19:46:46.981Z,1.73
2019-03-18T19:49:15.340Z,25.27
2019-03-18T19:51:43.980Z,29.07
2019-03-18T19:54:12.968Z,11.40
2019-03-18T19:56:41.587Z,19.80
2019-03-18T19:59:10.025Z,7.00
2019-03-18T20:01:38.532Z,17.60
2019-03-18T20:04:06.885Z,9.47
2019-03-18T20:06:35.332Z,6.80
2019-03-18T20:09:04.281Z,5.40
2019-03-18T20:11:32.815Z,14.23
2019-03-18T20:14:01.757Z,13.50
2019-03-18T20:16:30.484Z,5.40
2019-03-18T20:19:03.009Z,8.90
2019-03-18T20:21:31.646Z,11.03
2019-03-18T20:24:01.152Z,3.73
2019-03-18T20:26:30.468Z,6.43
2019-03-18T20:28:59.116Z,6.70
2019-03-18T20:31:27.781Z,5.17
2019-03-18T20:33:56.464Z,4.17
2019-03-18T20:36:24.895Z,7.73
2019-03-18T20:38:53.413Z,6.23
2019-03-18T20:41:21.868Z,9.73
2019-03-18T20:43:50.398Z,3.83
2019-03-18T20:46:19.102Z,4.03
2019-03-18T20:48:47.549Z,3.50
2019-03-18T20:51:16.023Z,5.10
2019-03-18T20:53:44.671Z,4.23
2019-03-18T20:56:13.209Z,4.90
2019-03-18T20:58:41.719Z,4.03
2019-03-18T21:01:10.126Z,8.33
2019-03-18T21:03:38.481Z,3.70
2019-03-18T21:06:06.949Z,3.53
2019-03-18T21:08:35.409Z,9.27
2019-03-18T21:11:08.393Z,2.83
2019-03-18T21:13:36.846Z,3.03
2019-03-18T21:16:05.558Z,6.53
2019-03-18T21:18:34.020Z,6.00
2019-03-18T21:21:02.633Z,6.80
2019-03-18T21:23:31.082Z,4.13
2019-03-18T21:25:59.708Z,6.37
2019-03-18T21:28:28.073Z,2.90
2019-03-18T21:30:56.468Z,3.27
2019-03-18T21:33:24.849Z,3.03
2019-03-18T21:35:55.739Z,8.40
2019-03-18T21:38:23.373Z,3.10
2019-03-18T21:40:51.756Z,5.90
2019-03-18T21:43:20.195Z,2.13
2019-03-18T21:45:48.621Z,12.20
2019-03-18T21:48:17.166Z,5.33
2019-03-18T21:53:55.824Z,3.47
2019-03-18T21:56:24.477Z,1.60
2019-03-18T21:58:53.132Z,5.03
2019-03-18T22:01:21.641Z,2.17
2019-03-18T22:03:50.024Z,1.57
2019-03-18T22:06:18.427Z,2.50
2019-03-18T22:08:46.793Z,2.33
2019-03-18T22:11:15.326Z,4.10
2019-03-18T22:13:44.097Z,3.63
2019-03-18T22:16:12.524Z,3.37
2019-03-18T22:18:40.896Z,1.80
2019-03-18T22:21:09.368Z,4.07
2019-03-18T22:23:37.813Z,2.20
2019-03-18T22:26:06.269Z,2.83
2019-03-18T22:28:35.490Z,4.50
2019-03-18T22:31:04.041Z,1.90
2019-03-18T22:33:32.414Z,3.27
2019-03-18T22:36:00.841Z,1.43
2019-03-18T22:38:29.236Z,1.53
2019-03-18T22:40:57.618Z,6.27
2019-03-18T22:43:25.971Z,5.20
2019-03-18T22:45:54.352Z,3.63
2019-03-18T22:48:22.716Z,2.87
2019-03-18T22:50:51.075Z,1.40
2019-03-18T22:53:19.510Z,5.80
2019-03-18T22:55:47.989Z,1.43
2019-03-18T22:58:16.438Z,2.50
2019-03-18T23:00:52.688Z,1.73
2019-03-18T23:03:22.962Z,7.13
2019-03-18T23:05:51.677Z,1.53
2019-03-18T23:08:20.128Z,1.30
2019-03-18T23:10:48.567Z,1.30
2019-03-18T23:13:16.984Z,2.00
2019-03-18T23:15:45.372Z,1.60
2019-03-18T23:18:13.741Z,2.50
2019-03-18T23:20:42.150Z,3.60
2019-03-18T23:23:10.608Z,2.50
2019-03-18T23:25:39.007Z,1.80
2019-03-18T23:28:07.611Z,2.53
2019-03-18T23:30:36.075Z,2.83
2019-03-18T23:33:04.548Z,1.13
2019-03-18T23:35:33.279Z,2.80
2019-03-18T23:38:01.652Z,1.63
2019-03-18T23:40:30.027Z,1.10
2019-03-18T23:42:58.714Z,1.90
2019-03-18T23:45:27.178Z,1.00
2019-03-18T23:47:55.648Z,1.00
2019-03-18T23:50:24.066Z,1.20
2019-03-18T23:52:52.409Z,0.90
2019-03-18T23:55:21.126Z,2.37
2019-03-18T23:57:49.559Z,1.00
